Commanda, Canada
Current Conditions -  °F | °C
As of 3:22 PM on Thursday 29 Jan 2015 (Local Time) from CYYB Reporting Station
Light Snow Light Snow  
Wind Chill: 14°   Ceiling: 1900
Heat Index: 23°   Visibility: 2mi
Dew Point: 23°   Wind: 8mph
Humidity: 100%   Direction: 140°SE
Pressure: 29.67"   Gusts: NA
Location:  45.95°N, 79.6°W
Report Text: CYYB 292022Z 14007KT 2SM -SN OVC019 M05/M05 A2967 RMK SC8 SLP070
Loading
Personal Weather Stations






























Interactive Weather Map New forecast layout! Learn more

10-Day Weather Forecast

Advertisements
Track Severe Weather on mobile